Time;durP1;ratioP1;P1;durP2;ratioP2;P2;SDS_P1;SDS_P2;PMS_P1;PMS_P2;Temp;Humidity;BMP_temperature;BMP_pressure;BME280_temperature;BME280_humidity;BME280_pressure;Samples;Min_cycle;Max_cycle;Signal;HPM_P1;HPM_P2
2022/07/05 00:02:38;;;;;;;17.48;8.73;;;;;;;21.06;76.12;99047.47;4323288;80;21066;-83
2022/07/05 00:08:39;;;;;;;16.15;9.25;;;;;;;21.06;76.76;99044.09;4443085;80;20998;-83
2022/07/05 00:21:49;;;;;;;14.73;8.73;;;;;;;21.14;77.28;99044.01;4296493;81;20955;-84
2022/07/05 00:27:53;;;;;;;14.78;9.08;;;;;;;21.16;77.73;99049.92;4285218;81;20988;-83
2022/07/05 00:33:54;;;;;;;14.68;8.48;;;;;;;21.09;78.02;99059.89;4351706;80;21034;-84
2022/07/05 00:39:56;;;;;;;11.65;8.08;;;;;;;21.07;78.53;99064.33;4340853;80;21062;-83
2022/07/05 00:45:57;;;;;;;12.10;8.88;;;;;;;21.04;78.81;99067.40;4269802;81;21985;-83
2022/07/05 00:52:01;;;;;;;12.23;8.08;;;;;;;21.06;78.97;99085.05;4290062;81;21023;-83
2022/07/05 00:58:03;;;;;;;17.50;8.63;;;;;;;21.08;79.35;99093.73;4281334;81;21974;-84
2022/07/05 01:04:06;;;;;;;10.50;8.58;;;;;;;21.01;79.29;99088.36;4295222;81;21061;-83
2022/07/05 01:10:08;;;;;;;13.68;8.30;;;;;;;20.94;79.24;99077.42;4290821;81;21555;-83
2022/07/05 01:16:10;;;;;;;9.98;7.15;;;;;;;20.88;79.29;99086.13;4308371;81;20987;-83
2022/07/05 01:22:18;;;;;;;9.35;7.08;;;;;;;20.89;78.85;99070.38;4300588;81;21089;-83
2022/07/05 01:28:21;;;;;;;8.73;6.28;;;;;;;20.94;78.86;99074.64;4281863;81;21097;-83
2022/07/05 01:34:22;;;;;;;10.03;6.30;;;;;;;20.98;78.61;99066.39;4299530;81;21677;-84
2022/07/05 01:40:25;;;;;;;9.88;6.20;;;;;;;20.94;78.12;99063.52;4298371;81;21608;-83
2022/07/05 01:46:37;;;;;;;8.38;5.75;;;;;;;20.97;77.84;99063.42;4300850;81;21519;-83
2022/07/05 01:52:42;;;;;;;7.17;5.05;;;;;;;20.98;77.68;99057.25;4288803;81;21010;-83
2022/07/05 01:58:46;;;;;;;5.67;4.78;;;;;;;20.94;77.46;99057.95;4305977;81;21026;-82
2022/07/05 02:04:47;;;;;;;7.90;5.10;;;;;;;21.01;77.75;99067.49;4302714;81;21023;-83
2022/07/05 02:10:51;;;;;;;7.72;4.72;;;;;;;20.96;77.29;99054.13;4298877;81;21789;-82
2022/07/05 02:16:55;;;;;;;9.18;5.28;;;;;;;20.96;77.48;99052.12;4321963;81;21011;-83
2022/07/05 02:22:59;;;;;;;7.20;5.40;;;;;;;21.01;77.71;99067.49;4320566;81;20996;-83
2022/07/05 02:29:06;;;;;;;6.08;4.58;;;;;;;20.91;77.40;99062.38;4222350;81;21955;-84
2022/07/05 02:35:10;;;;;;;7.12;5.67;;;;;;;20.97;77.71;99071.00;3967957;88;21148;-84
2022/07/05 02:41:12;;;;;;;10.25;5.70;;;;;;;21.00;77.45;99073.66;4033720;87;21017;-84
2022/07/05 02:47:15;;;;;;;7.60;5.53;;;;;;;20.93;77.43;99077.23;4034441;87;21364;-86
2022/07/05 02:53:18;;;;;;;9.78;5.72;;;;;;;20.89;77.84;99084.92;4034705;87;21056;-84
2022/07/05 02:59:23;;;;;;;11.68;5.92;;;;;;;20.84;77.68;99078.50;4036229;87;21095;-84
2022/07/05 03:05:24;;;;;;;6.10;5.22;;;;;;;20.78;77.66;99083.81;4036528;87;21548;-84
2022/07/05 03:11:29;;;;;;;7.25;5.72;;;;;;;20.66;78.37;99087.34;4042402;87;21102;-84
2022/07/05 03:17:31;;;;;;;6.85;4.75;;;;;;;20.63;78.29;99101.34;4057983;86;21065;-84
2022/07/05 03:23:34;;;;;;;6.85;5.22;;;;;;;20.63;78.69;99103.52;4057566;86;21105;-85
2022/07/05 03:29:36;;;;;;;6.97;4.90;;;;;;;20.55;78.29;99097.22;4087717;83;21814;-85
2022/07/05 03:35:38;;;;;;;6.60;4.62;;;;;;;20.48;78.21;99089.84;4196591;83;21120;-85
2022/07/05 03:41:40;;;;;;;6.58;5.05;;;;;;;20.51;77.96;99095.13;4188306;83;21129;-84
2022/07/05 03:47:43;;;;;;;6.55;4.80;;;;;;;20.50;77.92;99090.17;4167640;83;21110;-82
2022/07/05 03:53:47;;;;;;;5.87;5.03;;;;;;;20.47;78.16;99107.73;4207359;82;75525;-83
2022/07/05 03:59:48;;;;;;;6.33;4.70;;;;;;;20.42;78.18;99116.63;4211948;83;21056;-83
2022/07/05 04:05:51;;;;;;;5.47;4.87;;;;;;;20.47;78.45;99127.83;4210654;83;21031;-87
2022/07/05 04:11:53;;;;;;;5.87;4.42;;;;;;;20.45;78.27;99132.44;4204099;82;21051;-83
2022/07/05 04:17:56;;;;;;;6.80;5.35;;;;;;;20.41;78.38;99128.95;4178309;83;22061;-84
2022/07/05 04:23:58;;;;;;;8.08;5.92;;;;;;;20.30;78.71;99132.62;4199028;83;20994;-82
2022/07/05 04:30:00;;;;;;;8.15;5.20;;;;;;;20.19;79.13;99134.88;4204103;83;21066;-84
2022/07/05 04:36:02;;;;;;;8.18;5.00;;;;;;;20.18;79.79;99129.95;4201909;83;21054;-84
2022/07/05 04:42:04;;;;;;;7.30;5.22;;;;;;;20.08;79.80;99111.51;4200390;83;21054;-83
2022/07/05 04:48:05;;;;;;;6.22;4.60;;;;;;;19.98;80.19;99106.98;4198150;83;21010;-84
2022/07/05 04:54:08;;;;;;;10.78;5.20;;;;;;;19.90;81.08;99113.95;4187521;83;21554;-86
2022/07/05 05:00:13;;;;;;;7.78;4.60;;;;;;;19.86;81.17;99126.34;4206246;83;21056;-85
2022/07/05 05:06:15;;;;;;;5.58;5.00;;;;;;;19.88;81.71;99130.88;4203102;83;21619;-85
2022/07/05 05:12:16;;;;;;;6.60;5.25;;;;;;;19.85;81.99;99119.23;4199950;83;21054;-83
2022/07/05 05:18:21;;;;;;;7.85;5.20;;;;;;;19.82;82.62;99120.90;4200545;83;21427;-84
2022/07/05 05:24:21;;;;;;;9.33;4.08;;;;;;;19.86;82.82;99122.18;4209658;82;21064;-85
2022/07/05 05:30:23;;;;;;;6.92;4.22;;;;;;;19.89;83.43;99117.14;4205876;83;21070;-84
2022/07/05 05:36:24;;;;;;;7.95;4.17;;;;;;;19.88;83.33;99120.55;4202229;83;21034;-86
2022/07/05 05:42:26;;;;;;;6.58;4.25;;;;;;;19.78;83.26;99117.41;4122159;85;21029;-82
2022/07/05 05:48:27;;;;;;;6.55;4.65;;;;;;;19.75;83.54;99129.98;4125136;84;21123;-84
2022/07/05 05:54:29;;;;;;;4.58;4.17;;;;;;;19.64;83.61;99152.45;4120025;84;21005;-84
2022/07/05 06:00:30;;;;;;;6.05;4.42;;;;;;;19.67;84.25;99164.09;4126475;84;21151;-83
2022/07/05 06:06:31;;;;;;;6.40;5.17;;;;;;;19.71;84.73;99187.02;4118584;85;21141;-84
2022/07/05 06:12:32;;;;;;;4.90;4.22;;;;;;;19.68;85.02;99224.59;4191300;83;22001;-85
2022/07/05 06:18:34;;;;;;;7.00;4.78;;;;;;;19.65;85.31;99239.34;4197282;83;21014;-86
2022/07/05 06:24:36;;;;;;;21.25;8.15;;;;;;;19.50;85.91;99252.73;4202064;83;21904;-85
2022/07/05 06:30:38;;;;;;;11.35;6.70;;;;;;;19.48;86.41;99264.86;4199078;83;21010;-86
2022/07/05 06:36:40;;;;;;;18.62;7.92;;;;;;;19.42;87.11;99272.75;4208785;83;21452;-85
2022/07/05 06:42:41;;;;;;;17.60;8.98;;;;;;;19.36;87.81;99275.81;4207101;83;21006;-85
2022/07/05 06:48:43;;;;;;;10.65;7.37;;;;;;;19.28;88.23;99282.74;4199146;83;21057;-87
2022/07/05 06:54:44;;;;;;;9.65;7.17;;;;;;;19.11;88.72;99276.87;4201580;83;21523;-86
2022/07/05 07:00:46;;;;;;;12.00;6.72;;;;;;;19.06;89.71;99278.14;4200375;83;21055;-85
2022/07/05 07:06:47;;;;;;;9.55;7.17;;;;;;;19.17;89.97;99282.89;4200581;83;21023;-86
2022/07/05 07:12:48;;;;;;;11.85;7.53;;;;;;;19.20;90.15;99275.11;4143240;82;61769;-86
2022/07/05 07:18:50;;;;;;;9.83;8.30;;;;;;;19.18;90.55;99277.55;4178377;84;21099;-85
2022/07/05 07:24:51;;;;;;;8.30;7.42;;;;;;;19.13;90.91;99261.37;4191506;84;21048;-85
2022/07/05 07:30:52;;;;;;;7.72;6.53;;;;;;;19.12;91.10;99263.19;4189497;83;20989;-86
2022/07/05 07:36:55;;;;;;;9.23;7.30;;;;;;;19.24;91.17;99262.55;4192123;83;21112;-86
2022/07/05 07:42:57;;;;;;;9.05;7.08;;;;;;;19.28;91.42;99252.97;4184475;82;21017;-86
2022/07/05 07:48:59;;;;;;;11.43;6.70;;;;;;;19.35;91.44;99254.23;4187426;84;21025;-86
2022/07/05 07:55:01;;;;;;;8.15;5.72;;;;;;;19.43;91.61;99257.05;4189820;83;21044;-85
2022/07/05 08:01:02;;;;;;;8.18;7.12;;;;;;;19.49;91.56;99264.27;4187914;82;21638;-86
2022/07/05 08:07:06;;;;;;;9.03;7.62;;;;;;;19.46;91.33;99252.03;4187359;83;21096;-86
2022/07/05 08:13:08;;;;;;;12.47;8.33;;;;;;;19.46;91.53;99255.41;4183279;83;21055;-86
2022/07/05 08:25:29;;;;;;;9.90;8.68;;;;;;;19.44;92.42;99246.11;4182031;83;22152;-85
2022/07/05 08:31:33;;;;;;;10.68;8.98;;;;;;;19.49;92.74;99244.83;4187364;83;21048;-86
2022/07/05 08:37:34;;;;;;;9.95;8.98;;;;;;;19.45;92.82;99237.19;4190164;83;21088;-85
2022/07/05 08:43:39;;;;;;;10.85;8.70;;;;;;;19.38;93.39;99236.72;4189614;83;21057;-85
2022/07/05 08:49:40;;;;;;;12.82;9.38;;;;;;;19.40;93.60;99229.36;4165093;83;21895;-85
2022/07/05 08:55:42;;;;;;;11.30;9.40;;;;;;;19.48;93.75;99216.27;4193012;83;21071;-86
2022/07/05 09:01:46;;;;;;;12.85;9.38;;;;;;;19.42;94.09;99213.83;4196844;82;21034;-86
2022/07/05 09:07:59;;;;;;;11.05;9.98;;;;;;;19.41;94.69;99213.66;4191875;83;21014;-85
2022/07/05 09:14:03;;;;;;;9.25;8.40;;;;;;;19.46;95.05;99208.20;4191867;83;21633;-84
2022/07/05 09:20:19;;;;;;;10.32;8.78;;;;;;;19.67;95.26;99217.48;4194690;83;21108;-84
2022/07/05 09:26:23;;;;;;;10.60;9.00;;;;;;;19.85;95.13;99220.03;4202061;82;21405;-84
2022/07/05 09:32:25;;;;;;;10.85;9.75;;;;;;;19.87;95.01;99222.38;4200137;82;21679;-84
2022/07/05 09:38:27;;;;;;;10.80;9.40;;;;;;;19.88;95.10;99228.89;4210670;82;21970;-83
2022/07/05 09:44:28;;;;;;;11.22;8.93;;;;;;;19.91;95.03;99241.13;4202526;83;21117;-83
2022/07/05 09:50:43;;;;;;;12.53;10.23;;;;;;;19.95;94.87;99237.68;4186052;83;21024;-86
2022/07/05 09:56:47;;;;;;;10.30;9.25;;;;;;;19.90;95.12;99234.81;4206611;83;21042;-88
2022/07/05 10:03:00;;;;;;;15.40;9.68;;;;;;;19.89;95.15;99224.89;4192301;83;21660;-86
2022/07/05 10:08:59;;;;;;;14.53;11.43;;;;;;;19.93;95.37;99221.44;4201654;82;21000;-87
2022/07/05 10:15:01;;;;;;;15.53;10.98;;;;;;;20.01;95.87;99217.89;4149576;84;21045;-86
2022/07/05 10:21:05;;;;;;;13.58;11.05;;;;;;;20.07;96.17;99218.94;4150816;84;21043;-86
2022/07/05 10:27:08;;;;;;;12.33;10.30;;;;;;;20.14;96.16;99218.78;4140462;84;21029;-85
2022/07/05 10:33:09;;;;;;;11.78;10.45;;;;;;;20.11;96.38;99215.45;4128542;84;21057;-84
2022/07/05 10:39:11;;;;;;;12.23;10.35;;;;;;;20.22;96.47;99213.23;4148663;84;21121;-85
2022/07/05 10:45:36;;;;;;;13.83;10.45;;;;;;;20.30;96.55;99220.18;4139982;83;21178;-86
2022/07/05 10:51:39;;;;;;;10.95;9.63;;;;;;;20.38;96.49;99220.19;4131908;83;21000;-86
2022/07/05 11:04:26;;;;;;;;;;;;;;;20.58;96.12;99217.32;4057900;84;21101;-89
2022/07/05 11:10:27;;;;;;;12.50;9.23;;;;;;;20.69;96.21;99213.66;4083294;84;20146;-86
2022/07/05 11:23:34;;;;;;;13.78;10.78;;;;;;;20.70;95.60;99203.48;4038904;86;21133;-87
2022/07/05 11:49:40;;;;;;;14.40;12.60;;;;;;;20.65;96.28;99189.31;4025136;87;21081;-87
2022/07/05 11:55:42;;;;;;;13.60;12.23;;;;;;;20.58;96.33;99182.55;4074528;87;21120;-86
2022/07/05 12:01:44;;;;;;;13.72;12.10;;;;;;;20.51;96.56;99179.34;4062087;86;21147;-87
2022/07/05 12:07:51;;;;;;;17.48;13.72;;;;;;;20.48;96.85;99176.65;4060473;86;22257;-86
2022/07/05 12:13:52;;;;;;;;;;;;;;;20.46;96.67;99174.30;4069857;87;21005;-86
2022/07/05 12:19:58;;;;;;;14.07;12.68;;;;;;;20.36;97.99;99172.56;4064740;87;20142;-85
2022/07/05 12:40:20;;;;;;;14.63;12.13;;;;;;;20.22;97.51;99177.72;3990667;88;21076;-85
2022/07/05 12:46:40;;;;;;;13.28;11.97;;;;;;;20.20;97.52;99181.70;3956395;89;21503;-85
2022/07/05 13:07:29;;;;;;;19.48;15.32;;;;;;;20.15;97.93;99177.28;3811094;92;21159;-84
2022/07/05 13:13:30;;;;;;;15.40;13.05;;;;;;;20.08;97.71;99179.59;3803613;90;21059;-84
2022/07/05 13:19:31;;;;;;;14.73;12.20;;;;;;;19.99;98.49;99166.12;4015030;87;21109;-84
2022/07/05 13:25:39;;;;;;;12.90;9.68;;;;;;;20.03;98.83;99169.59;3990596;87;21019;-85
2022/07/05 13:31:42;;;;;;;11.93;10.72;;;;;;;20.06;98.89;99172.28;4027151;87;21076;-84
2022/07/05 13:38:13;;;;;;;16.57;10.00;;;;;;;20.12;98.89;99169.16;4030990;88;21003;-84
2022/07/05 13:44:15;;;;;;;11.28;10.18;;;;;;;20.15;98.93;99170.34;4046086;87;21003;-84
2022/07/05 13:50:33;;;;;;;11.60;9.50;;;;;;;20.27;99.23;99179.36;4020734;87;22127;-85
2022/07/05 13:56:38;;;;;;;12.95;8.08;;;;;;;20.36;99.26;99173.95;4014258;87;21045;-86
2022/07/05 14:03:00;;;;;;;8.00;6.10;;;;;;;20.40;99.19;99176.05;4024259;87;21019;-85
2022/07/05 14:09:08;;;;;;;6.08;5.47;;;;;;;20.45;99.07;99174.14;3933158;89;21058;-85
2022/07/05 14:15:23;;;;;;;6.72;5.53;;;;;;;20.51;98.83;99168.22;4023411;86;21054;-85
2022/07/05 14:28:07;;;;;;;8.70;6.33;;;;;;;20.41;98.82;99169.86;3979161;89;21075;-84
2022/07/05 14:34:21;;;;;;;7.22;6.25;;;;;;;20.37;99.03;99166.41;3926022;89;21079;-85
2022/07/05 14:40:25;;;;;;;8.10;5.22;;;;;;;20.35;98.91;99162.67;3933462;89;21520;-85
2022/07/05 14:46:29;;;;;;;6.58;5.15;;;;;;;20.27;98.80;99156.33;3930772;89;21042;-83
2022/07/05 14:52:32;;;;;;;6.53;4.42;;;;;;;20.20;99.22;99146.95;4029716;85;21343;-83
2022/07/05 14:58:33;;;;;;;4.35;3.62;;;;;;;20.24;99.19;99148.27;4018307;86;21134;-84
2022/07/05 15:04:38;;;;;;;5.67;4.10;;;;;;;20.18;98.73;99152.78;4029595;85;21433;-83
2022/07/05 15:10:39;;;;;;;6.22;4.35;;;;;;;20.08;98.48;99136.52;4032859;85;21735;-84
2022/07/05 15:16:40;;;;;;;6.70;4.00;;;;;;;20.04;98.78;99133.06;4047000;87;21358;-83
2022/07/05 15:22:45;;;;;;;8.63;3.83;;;;;;;20.01;98.83;99138.06;4018285;87;21132;-83
2022/07/05 15:28:47;;;;;;;7.53;4.65;;;;;;;20.03;98.95;99132.87;4013754;87;21569;-83
2022/07/05 15:34:58;;;;;;;5.05;4.53;;;;;;;20.05;98.95;99127.66;4016644;87;22002;-81
2022/07/05 15:40:59;;;;;;;5.40;4.90;;;;;;;20.01;98.83;99124.17;3940494;89;21075;-84
2022/07/05 15:47:06;;;;;;;7.97;5.45;;;;;;;19.91;98.80;99122.45;3951646;89;21047;-83
2022/07/05 15:53:16;;;;;;;6.55;5.83;;;;;;;19.84;99.12;99118.45;3943812;88;21071;-83
2022/07/05 15:59:21;;;;;;;7.85;5.80;;;;;;;19.75;99.12;99113.31;4003124;87;21083;-83
2022/07/05 16:05:24;;;;;;;5.83;5.33;;;;;;;19.67;99.50;99110.56;4013137;87;21077;-84
2022/07/05 16:11:25;;;;;;;8.70;5.25;;;;;;;19.56;99.38;99101.07;4028593;87;21472;-83
2022/07/05 16:17:26;;;;;;;5.85;5.35;;;;;;;19.49;99.62;99095.70;4028175;86;21047;-83
2022/07/05 16:23:28;;;;;;;6.03;5.25;;;;;;;19.44;99.49;99097.59;4020237;86;21057;-83
2022/07/05 16:29:31;;;;;;;7.42;5.67;;;;;;;19.40;99.70;99095.52;4015344;86;21114;-83
2022/07/05 16:35:34;;;;;;;8.35;5.58;;;;;;;19.38;99.76;99097.94;3945041;88;21159;-84
2022/07/05 16:41:36;;;;;;;7.12;5.75;;;;;;;19.38;99.96;99090.20;3959403;88;21058;-85
2022/07/05 16:47:37;;;;;;;8.45;5.42;;;;;;;19.37;100.00;99096.98;3965432;88;21087;-84
2022/07/05 16:53:42;;;;;;;6.78;5.33;;;;;;;19.40;100.00;99105.23;3951520;88;21115;-84
2022/07/05 16:59:47;;;;;;;9.80;5.70;;;;;;;19.39;100.00;99102.86;3843021;88;9999971;-84
2022/07/05 17:05:49;;;;;;;5.92;4.83;;;;;;;19.37;100.00;99094.96;4013330;86;21398;-84
2022/07/05 17:11:51;;;;;;;7.10;4.75;;;;;;;19.32;99.84;99097.48;4003972;86;21057;-83
2022/07/05 17:17:52;;;;;;;6.25;5.62;;;;;;;19.27;100.00;99095.17;4014219;86;21100;-84
2022/07/05 17:23:57;;;;;;;7.40;4.92;;;;;;;19.22;100.00;99102.62;4016910;86;21130;-84
2022/07/05 17:29:59;;;;;;;6.72;5.15;;;;;;;19.14;100.00;99098.45;4022405;86;21140;-84
2022/07/05 17:36:00;;;;;;;5.50;4.97;;;;;;;19.05;100.00;99092.69;4027413;86;21019;-84
2022/07/05 17:42:10;;;;;;;9.38;5.30;;;;;;;18.95;100.00;99077.83;4038003;86;21669;-84
2022/07/05 17:48:11;;;;;;;7.87;5.50;;;;;;;18.92;100.00;99089.78;4000577;88;21035;-84
2022/07/05 17:54:15;;;;;;;7.33;5.58;;;;;;;18.89;100.00;99079.55;4032980;88;21880;-84
2022/07/05 18:00:20;;;;;;;7.62;5.92;;;;;;;18.84;100.00;99075.88;4000677;87;21021;-84
2022/07/05 18:06:23;;;;;;;5.67;5.15;;;;;;;18.79;100.00;99073.63;3996583;87;20988;-84
2022/07/05 18:12:26;;;;;;;7.42;5.45;;;;;;;18.82;100.00;99081.69;3996343;87;21768;-84
2022/07/05 18:18:28;;;;;;;7.10;6.10;;;;;;;18.74;100.00;99077.66;4025621;87;21063;-84
2022/07/05 18:24:30;;;;;;;7.22;5.65;;;;;;;18.69;100.00;99084.32;4012490;88;21100;-84
2022/07/05 18:30:47;;;;;;;6.20;5.30;;;;;;;18.68;100.00;99096.01;4014062;87;21049;-86
2022/07/05 18:44:50;;;;;;;8.75;5.75;;;;;;;18.74;100.00;99117.87;4023092;88;21023;-84
2022/07/05 18:51:18;;;;;;;10.72;5.97;;;;;;;18.77;100.00;99107.94;3990072;87;21084;-83
2022/07/05 18:57:47;;;;;;;10.15;6.17;;;;;;;18.71;100.00;99120.73;3992127;88;21479;-83
2022/07/05 19:17:23;;;;;;;8.85;7.95;;;;;;;18.56;100.00;99138.83;4017134;87;21608;-84
2022/07/05 19:36:45;;;;;;;12.30;8.48;;;;;;;18.24;100.00;99120.59;4008970;87;20983;-84
2022/07/05 19:43:11;;;;;;;11.70;8.83;;;;;;;18.21;100.00;99108.97;4028551;87;21070;-84
2022/07/05 19:49:49;;;;;;;9.00;7.97;;;;;;;18.11;100.00;99096.08;4026331;88;21075;-84
2022/07/05 19:56:13;;;;;;;18.02;9.55;;;;;;;17.98;100.00;99090.98;3996598;88;21027;-84
2022/07/05 20:02:44;;;;;;;14.60;9.05;;;;;;;18.04;100.00;99093.45;4020801;87;20992;-84
2022/07/05 20:09:06;;;;;;;9.13;8.13;;;;;;;17.91;100.00;99098.80;4009967;87;21041;-84
2022/07/05 20:15:29;;;;;;;9.98;8.45;;;;;;;17.91;100.00;99100.19;4011763;87;21050;-84
2022/07/05 20:22:02;;;;;;;11.93;9.25;;;;;;;18.00;100.00;99101.02;3998263;87;21095;-83
2022/07/05 20:28:36;;;;;;;11.25;9.85;;;;;;;18.03;100.00;99107.89;4022100;87;21066;-84
2022/07/05 20:34:59;;;;;;;17.82;10.75;;;;;;;17.90;100.00;99113.84;3911768;89;21141;-83
2022/07/05 20:41:14;;;;;;;15.28;10.55;;;;;;;17.99;100.00;99113.31;3949100;88;21148;-83
2022/07/05 20:48:05;;;;;;;10.15;8.65;;;;;;;18.09;100.00;99112.33;3882313;90;21136;-84
2022/07/05 20:54:20;;;;;;;12.53;10.03;;;;;;;18.16;100.00;99114.99;3926218;89;21064;-83
2022/07/05 21:00:23;;;;;;;14.73;9.28;;;;;;;18.17;100.00;99115.95;4015065;87;21922;-83
2022/07/05 21:06:54;;;;;;;13.60;9.30;;;;;;;18.19;100.00;99113.55;4017200;87;21602;-83
2022/07/05 21:13:37;;;;;;;12.70;9.88;;;;;;;18.19;100.00;99109.99;3962905;87;21076;-83
2022/07/05 21:20:25;;;;;;;13.13;10.35;;;;;;;18.18;100.00;99104.28;3969664;87;21096;-83
2022/07/05 21:33:34;;;;;;;19.95;9.55;;;;;;;18.19;100.00;99107.22;3877261;90;21113;-83
2022/07/05 21:39:37;;;;;;;;;;;;;;;18.20;100.00;99106.00;3898336;88;21118;-82
2022/07/05 21:46:01;;;;;;;11.08;9.08;;;;;;;18.19;100.00;99108.02;3926913;90;20130;-82
2022/07/05 21:52:36;;;;;;;12.98;10.82;;;;;;;18.16;100.00;99110.25;3921851;90;21056;-83
2022/07/05 22:06:31;;;;;;;13.65;10.43;;;;;;;18.14;100.00;99110.47;3909982;89;21088;-83
2022/07/05 22:13:07;;;;;;;12.47;9.75;;;;;;;18.16;100.00;99100.55;3884731;90;21741;-83
2022/07/05 22:26:44;;;;;;;10.08;7.97;;;;;;;18.09;100.00;99092.34;3916738;88;21139;-82
2022/07/05 22:39:51;;;;;;;11.35;7.72;;;;;;;18.04;100.00;99093.45;3894270;89;21082;-82
2022/07/05 22:46:02;;;;;;;9.73;8.73;;;;;;;18.03;100.00;99087.70;3913417;89;21103;-81
2022/07/05 22:52:28;;;;;;;9.50;8.43;;;;;;;17.99;100.00;99086.41;3953233;89;21047;-82
2022/07/05 23:05:52;;;;;;;13.53;8.45;;;;;;;17.95;100.00;99084.88;3892122;91;21056;-82
2022/07/05 23:12:08;;;;;;;11.80;8.58;;;;;;;17.90;100.00;99081.23;3806723;92;21696;-82
2022/07/05 23:18:12;;;;;;;10.65;8.28;;;;;;;17.90;100.00;99084.76;3937027;89;21087;-82
2022/07/05 23:30:56;;;;;;;11.88;7.92;;;;;;;17.87;100.00;99079.30;3993873;88;21074;-83
2022/07/05 23:44:44;;;;;;;9.23;8.33;;;;;;;17.88;100.00;99085.80;3972082;87;21938;-82
2022/07/05 23:51:10;;;;;;;12.65;8.40;;;;;;;17.85;100.00;99094.95;3981291;89;21086;-81
2022/07/05 23:57:40;;;;;;;13.35;8.98;;;;;;;17.78;100.00;99097.83;3921307;90;21129;-81
